Seven Seas Voyager — C6SW3 — position and weather

sailwx.info

Track history (hours):
 
Tides and Currents Weather Stations Pressure Air Temp Water Temp Dewpoint Dewpoint Depression Visibility Wind Speed Wind Dir Waves Ship Positions

Seven Seas Voyager

Last reported at 2017-May-24 21:00 UTC. Time now 2017-May-25 10:28 UTC.
Position N 36°24' E 023°06'.

Length 205 m; draft 7 m.

Type: Ship. MMSI: 31151000.

Wind from 040 at 21 knots

Barometer 1017.0 mb
Air temperature 20.0 ° C
Visibility: greater than 10.8 NM
Dewpoint 16.9 ° C

Date/timePositionNaut miles runAvg speedWind from/ knotsBaromVisibWave heightAir tempDewpointWater temp
2017-May-24 21:00N 36°24' E 023°06'2020.2 040 / 211017.010.8 20.016.9
2017-May-24 20:00N 36°30' E 023°30'552.4 040 / 241017.010.8 20.016.9
2017-May-24 19:53N 36°34' E 023°35'719.1
2017-May-24 19:30N 36°38' E 023°43'918.9
2017-May-24 19:00N 36°43' E 023°52'4239.5
2017-May-24 19:00N 36°42' E 023°48'1326.7 060 / 221017.010.8 20.016.9
2017-May-24 18:30N 36°48' E 024°02'1019.1
2017-May-24 18:00N 36°53' E 024°12'1118.9
2017-May-24 17:27N 36°59' E 024°23'2518.6
2017-May-24 16:07N 37°14' E 024°48'218.6
2017-May-24 16:00N 37°15' E 024°50'918.8
2017-May-24 15:30N 37°21' E 024°59'918.0
2017-May-24 15:00N 37°26' E 025°09'814.7
2017-May-24 14:30N 37°28' E 025°18'1 0.9
2017-May-24 13:20N 37°27' E 025°19'0 0.0
2017-May-24 12:50N 37°27' E 025°19'0 0.0
2017-May-24 12:14N 37°27' E 025°19'0 0.0
2017-May-24 11:50N 37°27' E 025°19'0 0.0
2017-May-24 11:08N 37°27' E 025°19'0 0.0
2017-May-24 10:50N 37°27' E 025°19'0 0.0
2017-May-24 10:14N 37°27' E 025°19'0 0.0
2017-May-24 09:50N 37°27' E 025°19'0 0.0
2017-May-24 09:26N 37°27' E 025°19'0 0.0
2017-May-24 08:56N 37°27' E 025°19'0 0.0
2017-May-24 08:26N 37°27' E 025°19'0 0.0
2017-May-24 07:56N 37°27' E 025°19'0 0.0
2017-May-24 07:26N 37°27' E 025°19'0 0.0
2017-May-24 06:56N 37°27' E 025°19'0 0.0
2017-May-24 06:26N 37°27' E 025°19'0 0.0
2017-May-24 05:56N 37°27' E 025°19'0 0.0
2017-May-24 05:20N 37°27' E 025°19'0 0.1
2017-May-24 04:50N 37°27' E 025°19'0 0.1
2017-May-24 04:30N 37°27' E 025°19'3 5.3
2017-May-24 04:00N 37°28' E 025°16'5 9.5
2017-May-24 03:30N 37°27' E 025°10'5 9.8
2017-May-24 03:00N 37°23' E 025°07'510.0
2017-May-24 02:30N 37°19' E 025°04'510.3
2017-May-24 02:00N 37°14' E 025°02'510.0
2017-May-24 01:30N 37°09' E 024°59'5610.2
2017-May-23 20:00N 36°18' E 024°30'52 2.3 300 / 151018.0 5.4 19.017.5
2017-May-22 21:25N 37°08' E 024°12'512.0
2017-May-22 20:59N 37°11' E 024°06'612.1
2017-May-22 20:30N 37°14' E 024°01'611.9
2017-May-22 20:00N 37°18' E 023°55'6462.7
2017-May-22 20:00N 37°12' E 023°54'1122.7 230 / 101014.010.8 18.016.4
2017-May-22 19:30N 37°23' E 023°50'511.0
2017-May-22 19:00N 37°28' E 023°47'4276.6
2017-May-22 19:00N 37°24' E 023°48'919.0 220 / 91014.010.8 18.016.4
2017-May-22 18:30N 37°33' E 023°46'611.1
2017-May-22 18:00N 37°38' E 023°43'510.9
2017-May-22 17:30N 37°43' E 023°40'611.4
2017-May-22 17:00N 37°48' E 023°37'612.0
2017-May-22 16:30N 37°54' E 023°37'2 4.7
2017-May-22 16:00N 37°56' E 023°38'0 0.0
2017-May-22 15:28N 37°56' E 023°38'0 0.0
2017-May-22 14:58N 37°56' E 023°38'0 0.0
2017-May-22 13:58N 37°56' E 023°38'0 0.0
2017-May-22 13:28N 37°56' E 023°38'0 0.0
2017-May-22 12:58N 37°56' E 023°38'0 0.0
2017-May-22 12:28N 37°56' E 023°38'0 0.0
2017-May-22 11:58N 37°56' E 023°38'0 0.0
2017-May-22 11:28N 37°56' E 023°38'0 0.0
2017-May-22 10:58N 37°56' E 023°38'0 0.0
2017-May-22 10:28N 37°56' E 023°38'0 0.0
2017-May-22 09:58N 37°56' E 023°38'0 0.0
2017-May-22 09:28N 37°56' E 023°38'0 0.0
2017-May-22 08:58N 37°56' E 023°38'0 0.0
2017-May-22 08:28N 37°56' E 023°38'0 0.0
2017-May-22 07:58N 37°56' E 023°38'0 0.0
2017-May-22 07:28N 37°56' E 023°38'0 0.0
2017-May-22 06:58N 37°56' E 023°38'0 0.0
2017-May-22 06:30N 37°56' E 023°38'0 0.0
2017-May-22 06:00N 37°56' E 023°38'0 0.0
2017-May-22 05:30N 37°56' E 023°38'0 0.0
2017-May-22 05:00N 37°56' E 023°38'0 0.0
2017-May-22 04:30N 37°56' E 023°38'0 0.0
2017-May-22 04:00N 37°56' E 023°38'0 0.0
2017-May-22 03:30N 37°56' E 023°38'0 0.0
2017-May-22 03:00N 37°56' E 023°38'0 0.0
2017-May-22 02:30N 37°56' E 023°38'0 0.0
2017-May-22 02:00N 37°56' E 023°38'0 0.1
2017-May-22 01:30N 37°56' E 023°38'1 2.9
2017-May-22 01:01N 37°56' E 023°37'510.0
2017-May-22 00:31N 37°51' E 023°39'713.2
2017-May-22 00:01N 37°45' E 023°42'713.4
2017-May-21 23:31N 37°39' E 023°46'713.3
2017-May-21 23:00N 37°32' E 023°48'4514.8
2017-May-21 20:00N 36°48' E 023°54'8 7.7 010 / 271005.010.8 18.014.8
2017-May-21 19:00N 36°42' E 024°00'60 2.6 020 / 321005.010.8 20.013.5
2017-May-20 20:00N 36°00' E 024°54'0 0.0 270 / 261015.0 5.4 20.016.9
2017-May-20 19:00N 36°00' E 024°54'6 6.0 270 / 351015.0 5.4 20.016.9
2017-May-20 18:00N 36°06' E 024°54'92 4.2 270 / 381014.0 5.4 20.016.9
2017-May-19 20:00N 36°12' E 026°48'0 0.0 310 / 381010.0 5.4 20.013.5
2017-May-19 19:00N 36°12' E 026°48'69 6.3 310 / 381010.0 5.4 20.013.5
2017-May-19 08:00N 36°24' E 028°12'0 0.0 180 / 51007.0 5.4 17.013.7
2017-May-19 07:00N 36°24' E 028°12'11212.5 180 / 51007.0 5.4 17.013.7
2017-May-18 22:05N 35°34' E 030°15'219.3
2017-May-18 22:00N 35°33' E 030°17'1817.9
2017-May-18 21:00N 35°24' E 030°36'1919.0 270 / 191008.0 5.4 20.016.9
2017-May-18 20:00N 35°12' E 030°54'11318.7 270 / 211008.0 5.4 20.016.9
2017-May-18 13:57N 34°32' E 033°03'714.6
2017-May-18 13:30N 34°39' E 033°03'2 3.5
2017-May-18 12:57N 34°39' E 033°01'0 0.0
2017-May-18 12:27N 34°39' E 033°01'0 0.0
2017-May-18 11:57N 34°39' E 033°01'0 0.0
2017-May-18 11:27N 34°39' E 033°01'0 0.0
2017-May-18 10:57N 34°39' E 033°01'0 0.0
2017-May-18 10:27N 34°39' E 033°01'0 0.0
2017-May-18 09:57N 34°39' E 033°01'0 0.0
2017-May-18 09:27N 34°39' E 033°01'0 0.0
2017-May-18 08:57N 34°39' E 033°01'0 0.0
2017-May-18 08:27N 34°39' E 033°01'0 0.0
2017-May-18 07:57N 34°39' E 033°01'0 0.0
2017-May-18 07:27N 34°39' E 033°01'0 0.0
2017-May-18 06:39N 34°39' E 033°01'0 0.0
2017-May-18 06:27N 34°39' E 033°01'0 0.0
2017-May-18 05:51N 34°39' E 033°01'0 0.0
2017-May-18 05:27N 34°39' E 033°01'0 0.0
2017-May-18 05:00N 34°39' E 033°01'0 0.8
2017-May-18 04:30N 34°39' E 033°01'2512.2
2017-May-18 02:28N 34°17' E 033°16'715.5
2017-May-18 02:01N 34°11' E 033°20'1115.4
2017-May-18 01:20N 34°01' E 033°26'515.4
2017-May-18 01:00N 33°57' E 033°28'815.1
2017-May-18 00:30N 33°50' E 033°32'715.1
2017-May-18 00:01N 33°43' E 033°36'816.0
2017-May-17 23:31N 33°36' E 033°40'816.1
2017-May-17 23:00N 33°29' E 033°44'816.2
2017-May-17 22:31N 33°22' E 033°49'816.3
2017-May-17 22:01N 33°14' E 033°53'816.6
2017-May-17 21:31N 33°08' E 033°59'816.5
2017-May-17 21:01N 33°02' E 034°06'816.7
2017-May-17 20:31N 33°01' E 034°16'917.0
2017-May-17 20:00N 32°59' E 034°26'172433.0
2017-May-17 20:00N 33°00' E 034°06'2552.1 010 / 151009.010.8 20.016.9
2017-May-17 19:31N 32°57' E 034°36'916.9
2017-May-17 19:00N 32°56' E 034°46'815.9
2017-May-17 18:31N 32°53' E 034°55'6 2.5
2017-May-17 16:04N 32°49' E 035°00'0 0.0
2017-May-17 15:52N 32°49' E 035°00'0 0.0
2017-May-17 15:22N 32°49' E 035°00'0 0.0
2017-May-17 14:58N 32°49' E 035°00'0 0.0
2017-May-17 13:58N 32°49' E 035°00'0 0.0
2017-May-17 13:28N 32°49' E 035°00'0 0.0
2017-May-17 12:58N 32°49' E 035°00'0 0.0
2017-May-17 12:16N 32°49' E 035°00'0 0.0
2017-May-17 11:58N 32°49' E 035°00'0 0.0
2017-May-17 11:28N 32°49' E 035°00'0 0.0
2017-May-17 10:57N 32°49' E 035°00'0 0.0
2017-May-17 10:04N 32°49' E 035°00'0 0.0
2017-May-17 09:45N 32°49' E 035°00'0 0.0
2017-May-17 09:28N 32°49' E 035°00'1 2.8
2017-May-17 09:00N 32°48' E 035°00'139.4 270 / 101011.010.8 21.019.5
2017-May-17 08:58N 32°49' E 035°00'0 0.0
2017-May-17 08:22N 32°49' E 035°00'1 3.6
2017-May-17 08:00N 32°48' E 035°00'139.4 270 / 81011.010.8 21.019.5
2017-May-17 07:58N 32°49' E 035°00'0 0.0
2017-May-17 07:28N 32°49' E 035°00'0 0.0
2017-May-17 06:46N 32°49' E 035°00'0 0.0
2017-May-17 06:28N 32°49' E 035°00'0 0.0
2017-May-17 05:58N 32°49' E 035°00'0 0.0
2017-May-17 05:28N 32°49' E 035°00'0 0.0
2017-May-17 04:22N 32°49' E 035°00'0 0.0
2017-May-17 03:52N 32°49' E 035°00'0 0.0
2017-May-17 03:22N 32°49' E 035°00'0 0.0
2017-May-17 02:52N 32°49' E 035°00'0 0.0
2017-May-17 02:28N 32°49' E 035°00'0 0.0
2017-May-17 01:57N 32°49' E 035°00'0 0.0
2017-May-17 01:28N 32°49' E 035°00'0 0.0
2017-May-17 00:52N 32°49' E 035°00'0 0.0
2017-May-17 00:28N 32°49' E 035°00'0 0.0
2017-May-16 23:58N 32°49' E 035°00'0 0.0
2017-May-16 23:28N 32°49' E 035°00'0 0.0
2017-May-16 22:57N 32°49' E 035°00'0 0.0
2017-May-16 22:27N 32°49' E 035°00'0 0.0
2017-May-16 21:57N 32°49' E 035°00'0 0.0
2017-May-16 21:28N 32°49' E 035°00'0 0.0
2017-May-16 20:46N 32°49' E 035°00'0 0.0
2017-May-16 20:28N 32°49' E 035°00'0 0.0
2017-May-16 19:58N 32°49' E 035°00'0 0.0
2017-May-16 19:22N 32°49' E 035°00'0 0.0
2017-May-16 18:58N 32°49' E 035°00'0 0.0
2017-May-16 18:28N 32°49' E 035°00'0 0.0
2017-May-16 17:58N 32°49' E 035°00'0 0.0
2017-May-16 17:22N 32°49' E 035°00'0 0.0
2017-May-16 16:28N 32°49' E 035°00'0 0.0
2017-May-16 15:34N 32°49' E 035°00'0 0.0
2017-May-16 15:28N 32°49' E 035°00'0 0.0
2017-May-16 14:57N 32°49' E 035°00'0 0.0
2017-May-16 14:27N 32°49' E 035°00'0 0.0
2017-May-16 13:21N 32°49' E 035°00'0 0.0
2017-May-16 12:51N 32°49' E 035°00'0 0.0
2017-May-16 12:28N 32°49' E 035°00'0 0.0
2017-May-16 11:58N 32°49' E 035°00'0 0.0
2017-May-16 11:28N 32°49' E 035°00'0 0.0
2017-May-16 10:22N 32°49' E 035°00'0 0.0
2017-May-16 09:58N 32°49' E 035°00'0 0.0
2017-May-16 09:28N 32°49' E 035°00'1 2.8
2017-May-16 09:00N 32°48' E 035°00'139.8 180 / 101012.1 5.4 22.021.3
2017-May-16 08:58N 32°49' E 035°00'0 0.0
2017-May-16 08:22N 32°49' E 035°00'1 3.6
2017-May-16 08:00N 32°48' E 035°00'139.4 180 / 101012.1 5.4 22.021.3
2017-May-16 07:58N 32°49' E 035°00'0 0.0
2017-May-16 07:28N 32°49' E 035°00'0 0.0
2017-May-16 06:21N 32°49' E 035°00'0 0.0
2017-May-16 05:52N 32°49' E 035°00'0 0.0
2017-May-16 05:28N 32°49' E 035°00'0 0.0
2017-May-16 04:52N 32°49' E 035°00'0 0.0
2017-May-16 04:28N 32°49' E 035°00'0 0.0
2017-May-16 03:57N 32°49' E 035°00'0 0.0
2017-May-16 03:27N 32°49' E 035°00'0 0.0
2017-May-16 02:58N 32°49' E 035°00'0 0.2
2017-May-16 02:30N 32°49' E 035°00'1 2.7
2017-May-16 02:00N 32°51' E 035°01'4 8.8
2017-May-16 01:30N 32°53' E 034°56'510.5
2017-May-16 01:00N 32°53' E 034°50'510.4
2017-May-16 00:30N 32°54' E 034°44'510.5
2017-May-16 00:00N 32°55' E 034°38'510.5
2017-May-15 23:30N 32°56' E 034°31'810.2
2017-May-15 22:45N 32°57' E 034°22'310.0
2017-May-15 22:30N 32°56' E 034°20'610.5
2017-May-15 21:54N 32°52' E 034°14'410.6
2017-May-15 21:30N 32°49' E 034°10'612.2
2017-May-15 21:00N 32°45' E 034°05'211305.3
2017-May-15 21:00N 32°30' E 033°48'1326.1 340 / 81012.010.8 21.019.5
2017-May-15 20:30N 32°39' E 033°58'815.7
2017-May-15 20:00N 32°34' E 033°52'5383.9
2017-May-15 20:00N 32°30' E 033°48'3 6.1 340 / 81012.010.8 21.019.5
2017-May-15 19:30N 32°28' E 033°45'815.7
2017-May-15 19:00N 32°23' E 033°38'11680.0
2017-May-15 19:00N 32°30' E 033°48'1938.3 340 / 81012.010.8 21.019.5
2017-May-15 18:30N 32°18' E 033°31'2715.7
2017-May-15 16:49N 32°02' E 033°06'515.7
2017-May-15 16:30N 31°59' E 033°02'815.8
2017-May-15 16:00N 31°54' E 032°55'1015.9
2017-May-15 15:22N 31°47' E 032°46'615.9
2017-May-15 15:00N 31°44' E 032°40'1115.9
2017-May-15 14:18N 31°38' E 032°29'1113.6
2017-May-15 13:30N 31°28' E 032°25'815.4
2017-May-15 13:00N 31°20' E 032°23'713.0
2017-May-15 12:28N 31°13' E 032°21'510.7
2017-May-15 12:00N 31°09' E 032°19'510.0
2017-May-15 11:29N 31°04' E 032°19'510.0
2017-May-15 11:00N 30°59' E 032°19'610.6
2017-May-15 10:28N 30°53' E 032°19'2315.6
2017-May-15 09:00N 30°30' E 032°18'0 0.0 340 / 81012.010.8 27.016.4
2017-May-15 08:00N 30°30' E 032°18'43 3.9 340 / 81012.010.8 27.016.4
2017-May-14 21:00N 29°48' E 032°30'   350 / 201007.010.8 24.018.0
Track history (hours):
 
Tides and Currents Weather Stations Pressure Air Temp Water Temp Dewpoint Dewpoint Depression Visibility Wind Speed Wind Dir Waves Ship Positions

Seven Seas Voyager

Last reported at 2017-May-24 21:00 UTC. Time now 2017-May-25 10:28 UTC.
Position N 36°24' E 023°06'.

Length 205 m; draft 7 m.

Type: Ship. MMSI: 31151000.

Wind from 040 at 21 knots

Barometer 1017.0 mb
Air temperature 20.0 ° C
Visibility: greater than 10.8 NM
Dewpoint 16.9 ° C

Date/timePositionNaut miles runAvg speedWind from/ knotsBaromVisibWave heightAir tempDewpointWater temp
2017-May-24 21:00N 36°24' E 023°06'2020.2 040 / 211017.010.8 20.016.9
2017-May-24 20:00N 36°30' E 023°30'552.4 040 / 241017.010.8 20.016.9
2017-May-24 19:53N 36°34' E 023°35'719.1
2017-May-24 19:30N 36°38' E 023°43'918.9
2017-May-24 19:00N 36°43' E 023°52'4239.5
2017-May-24 19:00N 36°42' E 023°48'1326.7 060 / 221017.010.8 20.016.9
2017-May-24 18:30N 36°48' E 024°02'1019.1
2017-May-24 18:00N 36°53' E 024°12'1118.9
2017-May-24 17:27N 36°59' E 024°23'2518.6
2017-May-24 16:07N 37°14' E 024°48'218.6
2017-May-24 16:00N 37°15' E 024°50'918.8
2017-May-24 15:30N 37°21' E 024°59'918.0
2017-May-24 15:00N 37°26' E 025°09'814.7
2017-May-24 14:30N 37°28' E 025°18'1 0.9
2017-May-24 13:20N 37°27' E 025°19'0 0.0
2017-May-24 12:50N 37°27' E 025°19'0 0.0
2017-May-24 12:14N 37°27' E 025°19'0 0.0
2017-May-24 11:50N 37°27' E 025°19'0 0.0
2017-May-24 11:08N 37°27' E 025°19'0 0.0
2017-May-24 10:50N 37°27' E 025°19'0 0.0
2017-May-24 10:14N 37°27' E 025°19'0 0.0
2017-May-24 09:50N 37°27' E 025°19'0 0.0
2017-May-24 09:26N 37°27' E 025°19'0 0.0
2017-May-24 08:56N 37°27' E 025°19'0 0.0
2017-May-24 08:26N 37°27' E 025°19'0 0.0
2017-May-24 07:56N 37°27' E 025°19'0 0.0
2017-May-24 07:26N 37°27' E 025°19'0 0.0
2017-May-24 06:56N 37°27' E 025°19'0 0.0
2017-May-24 06:26N 37°27' E 025°19'0 0.0
2017-May-24 05:56N 37°27' E 025°19'0 0.0
2017-May-24 05:20N 37°27' E 025°19'0 0.1
2017-May-24 04:50N 37°27' E 025°19'0 0.1
2017-May-24 04:30N 37°27' E 025°19'3 5.3
2017-May-24 04:00N 37°28' E 025°16'5 9.5
2017-May-24 03:30N 37°27' E 025°10'5 9.8
2017-May-24 03:00N 37°23' E 025°07'510.0
2017-May-24 02:30N 37°19' E 025°04'510.3
2017-May-24 02:00N 37°14' E 025°02'510.0
2017-May-24 01:30N 37°09' E 024°59'5610.2
2017-May-23 20:00N 36°18' E 024°30'52 2.3 300 / 151018.0 5.4 19.017.5
2017-May-22 21:25N 37°08' E 024°12'512.0
2017-May-22 20:59N 37°11' E 024°06'612.1
2017-May-22 20:30N 37°14' E 024°01'611.9
2017-May-22 20:00N 37°18' E 023°55'6462.7
2017-May-22 20:00N 37°12' E 023°54'1122.7 230 / 101014.010.8 18.016.4
2017-May-22 19:30N 37°23' E 023°50'511.0
2017-May-22 19:00N 37°28' E 023°47'4276.6
2017-May-22 19:00N 37°24' E 023°48'919.0 220 / 91014.010.8 18.016.4
2017-May-22 18:30N 37°33' E 023°46'611.1
2017-May-22 18:00N 37°38' E 023°43'510.9
2017-May-22 17:30N 37°43' E 023°40'611.4
2017-May-22 17:00N 37°48' E 023°37'612.0
2017-May-22 16:30N 37°54' E 023°37'2 4.7
2017-May-22 16:00N 37°56' E 023°38'0 0.0
2017-May-22 15:28N 37°56' E 023°38'0 0.0
2017-May-22 14:58N 37°56' E 023°38'0 0.0
2017-May-22 13:58N 37°56' E 023°38'0 0.0
2017-May-22 13:28N 37°56' E 023°38'0 0.0
2017-May-22 12:58N 37°56' E 023°38'0 0.0
2017-May-22 12:28N 37°56' E 023°38'0 0.0
2017-May-22 11:58N 37°56' E 023°38'0 0.0
2017-May-22 11:28N 37°56' E 023°38'0 0.0
2017-May-22 10:58N 37°56' E 023°38'0 0.0
2017-May-22 10:28N 37°56' E 023°38'0 0.0
2017-May-22 09:58N 37°56' E 023°38'0 0.0
2017-May-22 09:28N 37°56' E 023°38'0 0.0
2017-May-22 08:58N 37°56' E 023°38'0 0.0
2017-May-22 08:28N 37°56' E 023°38'0 0.0
2017-May-22 07:58N 37°56' E 023°38'0 0.0
2017-May-22 07:28N 37°56' E 023°38'0 0.0
2017-May-22 06:58N 37°56' E 023°38'0 0.0
2017-May-22 06:30N 37°56' E 023°38'0 0.0
2017-May-22 06:00N 37°56' E 023°38'0 0.0
2017-May-22 05:30N 37°56' E 023°38'0 0.0
2017-May-22 05:00N 37°56' E 023°38'0 0.0
2017-May-22 04:30N 37°56' E 023°38'0 0.0
2017-May-22 04:00N 37°56' E 023°38'0 0.0
2017-May-22 03:30N 37°56' E 023°38'0 0.0
2017-May-22 03:00N 37°56' E 023°38'0 0.0
2017-May-22 02:30N 37°56' E 023°38'0 0.0
2017-May-22 02:00N 37°56' E 023°38'0 0.1
2017-May-22 01:30N 37°56' E 023°38'1 2.9
2017-May-22 01:01N 37°56' E 023°37'510.0
2017-May-22 00:31N 37°51' E 023°39'713.2
2017-May-22 00:01N 37°45' E 023°42'713.4
2017-May-21 23:31N 37°39' E 023°46'713.3
2017-May-21 23:00N 37°32' E 023°48'4514.8
2017-May-21 20:00N 36°48' E 023°54'8 7.7 010 / 271005.010.8 18.014.8
2017-May-21 19:00N 36°42' E 024°00'60 2.6 020 / 321005.010.8 20.013.5
2017-May-20 20:00N 36°00' E 024°54'0 0.0 270 / 261015.0 5.4 20.016.9
2017-May-20 19:00N 36°00' E 024°54'6 6.0 270 / 351015.0 5.4 20.016.9
2017-May-20 18:00N 36°06' E 024°54'92 4.2 270 / 381014.0 5.4 20.016.9
2017-May-19 20:00N 36°12' E 026°48'0 0.0 310 / 381010.0 5.4 20.013.5
2017-May-19 19:00N 36°12' E 026°48'69 6.3 310 / 381010.0 5.4 20.013.5
2017-May-19 08:00N 36°24' E 028°12'0 0.0 180 / 51007.0 5.4 17.013.7
2017-May-19 07:00N 36°24' E 028°12'11212.5 180 / 51007.0 5.4 17.013.7
2017-May-18 22:05N 35°34' E 030°15'219.3
2017-May-18 22:00N 35°33' E 030°17'1817.9
2017-May-18 21:00N 35°24' E 030°36'1919.0 270 / 191008.0 5.4 20.016.9
2017-May-18 20:00N 35°12' E 030°54'11318.7 270 / 211008.0 5.4 20.016.9
2017-May-18 13:57N 34°32' E 033°03'714.6
2017-May-18 13:30N 34°39' E 033°03'2 3.5
2017-May-18 12:57N 34°39' E 033°01'0 0.0
2017-May-18 12:27N 34°39' E 033°01'0 0.0
2017-May-18 11:57N 34°39' E 033°01'0 0.0
2017-May-18 11:27N 34°39' E 033°01'0 0.0
2017-May-18 10:57N 34°39' E 033°01'0 0.0
2017-May-18 10:27N 34°39' E 033°01'0 0.0
2017-May-18 09:57N 34°39' E 033°01'0 0.0
2017-May-18 09:27N 34°39' E 033°01'0 0.0
2017-May-18 08:57N 34°39' E 033°01'0 0.0
2017-May-18 08:27N 34°39' E 033°01'0 0.0
2017-May-18 07:57N 34°39' E 033°01'0 0.0
2017-May-18 07:27N 34°39' E 033°01'0 0.0
2017-May-18 06:39N 34°39' E 033°01'0 0.0
2017-May-18 06:27N 34°39' E 033°01'0 0.0
2017-May-18 05:51N 34°39' E 033°01'0 0.0
2017-May-18 05:27N 34°39' E 033°01'0 0.0
2017-May-18 05:00N 34°39' E 033°01'0 0.8
2017-May-18 04:30N 34°39' E 033°01'2512.2
2017-May-18 02:28N 34°17' E 033°16'715.5
2017-May-18 02:01N 34°11' E 033°20'1115.4
2017-May-18 01:20N 34°01' E 033°26'515.4
2017-May-18 01:00N 33°57' E 033°28'815.1
2017-May-18 00:30N 33°50' E 033°32'715.1
2017-May-18 00:01N 33°43' E 033°36'816.0
2017-May-17 23:31N 33°36' E 033°40'816.1
2017-May-17 23:00N 33°29' E 033°44'816.2
2017-May-17 22:31N 33°22' E 033°49'816.3
2017-May-17 22:01N 33°14' E 033°53'816.6
2017-May-17 21:31N 33°08' E 033°59'816.5
2017-May-17 21:01N 33°02' E 034°06'816.7
2017-May-17 20:31N 33°01' E 034°16'917.0
2017-May-17 20:00N 32°59' E 034°26'172433.0
2017-May-17 20:00N 33°00' E 034°06'2552.1 010 / 151009.010.8 20.016.9
2017-May-17 19:31N 32°57' E 034°36'916.9
2017-May-17 19:00N 32°56' E 034°46'815.9
2017-May-17 18:31N 32°53' E 034°55'6 2.5
2017-May-17 16:04N 32°49' E 035°00'0 0.0
2017-May-17 15:52N 32°49' E 035°00'0 0.0
2017-May-17 15:22N 32°49' E 035°00'0 0.0
2017-May-17 14:58N 32°49' E 035°00'0 0.0
2017-May-17 13:58N 32°49' E 035°00'0 0.0
2017-May-17 13:28N 32°49' E 035°00'0 0.0
2017-May-17 12:58N 32°49' E 035°00'0 0.0
2017-May-17 12:16N 32°49' E 035°00'0 0.0
2017-May-17 11:58N 32°49' E 035°00'0 0.0
2017-May-17 11:28N 32°49' E 035°00'0 0.0
2017-May-17 10:57N 32°49' E 035°00'0 0.0
2017-May-17 10:04N 32°49' E 035°00'0 0.0
2017-May-17 09:45N 32°49' E 035°00'0 0.0
2017-May-17 09:28N 32°49' E 035°00'1 2.8
2017-May-17 09:00N 32°48' E 035°00'139.4 270 / 101011.010.8 21.019.5
2017-May-17 08:58N 32°49' E 035°00'0 0.0
2017-May-17 08:22N 32°49' E 035°00'1 3.6
2017-May-17 08:00N 32°48' E 035°00'139.4 270 / 81011.010.8 21.019.5
2017-May-17 07:58N 32°49' E 035°00'0 0.0
2017-May-17 07:28N 32°49' E 035°00'0 0.0
2017-May-17 06:46N 32°49' E 035°00'0 0.0
2017-May-17 06:28N 32°49' E 035°00'0 0.0
2017-May-17 05:58N 32°49' E 035°00'0 0.0
2017-May-17 05:28N 32°49' E 035°00'0 0.0
2017-May-17 04:22N 32°49' E 035°00'0 0.0
2017-May-17 03:52N 32°49' E 035°00'0 0.0
2017-May-17 03:22N 32°49' E 035°00'0 0.0
2017-May-17 02:52N 32°49' E 035°00'0 0.0
2017-May-17 02:28N 32°49' E 035°00'0 0.0
2017-May-17 01:57N 32°49' E 035°00'0 0.0
2017-May-17 01:28N 32°49' E 035°00'0 0.0
2017-May-17 00:52N 32°49' E 035°00'0 0.0
2017-May-17 00:28N 32°49' E 035°00'0 0.0
2017-May-16 23:58N 32°49' E 035°00'0 0.0
2017-May-16 23:28N 32°49' E 035°00'0 0.0
2017-May-16 22:57N 32°49' E 035°00'0 0.0
2017-May-16 22:27N 32°49' E 035°00'0 0.0
2017-May-16 21:57N 32°49' E 035°00'0 0.0
2017-May-16 21:28N 32°49' E 035°00'0 0.0
2017-May-16 20:46N 32°49' E 035°00'0 0.0
2017-May-16 20:28N 32°49' E 035°00'0 0.0
2017-May-16 19:58N 32°49' E 035°00'0 0.0
2017-May-16 19:22N 32°49' E 035°00'0 0.0
2017-May-16 18:58N 32°49' E 035°00'0 0.0
2017-May-16 18:28N 32°49' E 035°00'0 0.0
2017-May-16 17:58N 32°49' E 035°00'0 0.0
2017-May-16 17:22N 32°49' E 035°00'0 0.0
2017-May-16 16:28N 32°49' E 035°00'0 0.0
2017-May-16 15:34N 32°49' E 035°00'0 0.0
2017-May-16 15:28N 32°49' E 035°00'0 0.0
2017-May-16 14:57N 32°49' E 035°00'0 0.0
2017-May-16 14:27N 32°49' E 035°00'0 0.0
2017-May-16 13:21N 32°49' E 035°00'0 0.0
2017-May-16 12:51N 32°49' E 035°00'0 0.0
2017-May-16 12:28N 32°49' E 035°00'0 0.0
2017-May-16 11:58N 32°49' E 035°00'0 0.0
2017-May-16 11:28N 32°49' E 035°00'0 0.0
2017-May-16 10:22N 32°49' E 035°00'0 0.0
2017-May-16 09:58N 32°49' E 035°00'0 0.0
2017-May-16 09:28N 32°49' E 035°00'1 2.8
2017-May-16 09:00N 32°48' E 035°00'139.8 180 / 101012.1 5.4 22.021.3
2017-May-16 08:58N 32°49' E 035°00'0 0.0
2017-May-16 08:22N 32°49' E 035°00'1 3.6
2017-May-16 08:00N 32°48' E 035°00'139.4 180 / 101012.1 5.4 22.021.3
2017-May-16 07:58N 32°49' E 035°00'0 0.0
2017-May-16 07:28N 32°49' E 035°00'0 0.0
2017-May-16 06:21N 32°49' E 035°00'0 0.0
2017-May-16 05:52N 32°49' E 035°00'0 0.0
2017-May-16 05:28N 32°49' E 035°00'0 0.0
2017-May-16 04:52N 32°49' E 035°00'0 0.0
2017-May-16 04:28N 32°49' E 035°00'0 0.0
2017-May-16 03:57N 32°49' E 035°00'0 0.0
2017-May-16 03:27N 32°49' E 035°00'0 0.0
2017-May-16 02:58N 32°49' E 035°00'0 0.2
2017-May-16 02:30N 32°49' E 035°00'1 2.7
2017-May-16 02:00N 32°51' E 035°01'4 8.8
2017-May-16 01:30N 32°53' E 034°56'510.5
2017-May-16 01:00N 32°53' E 034°50'510.4
2017-May-16 00:30N 32°54' E 034°44'510.5
2017-May-16 00:00N 32°55' E 034°38'510.5
2017-May-15 23:30N 32°56' E 034°31'810.2
2017-May-15 22:45N 32°57' E 034°22'310.0
2017-May-15 22:30N 32°56' E 034°20'610.5
2017-May-15 21:54N 32°52' E 034°14'410.6
2017-May-15 21:30N 32°49' E 034°10'612.2
2017-May-15 21:00N 32°45' E 034°05'211305.3
2017-May-15 21:00N 32°30' E 033°48'1326.1 340 / 81012.010.8 21.019.5
2017-May-15 20:30N 32°39' E 033°58'815.7
2017-May-15 20:00N 32°34' E 033°52'5383.9
2017-May-15 20:00N 32°30' E 033°48'3 6.1 340 / 81012.010.8 21.019.5
2017-May-15 19:30N 32°28' E 033°45'815.7
2017-May-15 19:00N 32°23' E 033°38'11680.0
2017-May-15 19:00N 32°30' E 033°48'1938.3 340 / 81012.010.8 21.019.5
2017-May-15 18:30N 32°18' E 033°31'2715.7
2017-May-15 16:49N 32°02' E 033°06'515.7
2017-May-15 16:30N 31°59' E 033°02'815.8
2017-May-15 16:00N 31°54' E 032°55'1015.9
2017-May-15 15:22N 31°47' E 032°46'615.9
2017-May-15 15:00N 31°44' E 032°40'1115.9
2017-May-15 14:18N 31°38' E 032°29'1113.6
2017-May-15 13:30N 31°28' E 032°25'815.4
2017-May-15 13:00N 31°20' E 032°23'713.0
2017-May-15 12:28N 31°13' E 032°21'510.7
2017-May-15 12:00N 31°09' E 032°19'510.0
2017-May-15 11:29N 31°04' E 032°19'510.0
2017-May-15 11:00N 30°59' E 032°19'610.6
2017-May-15 10:28N 30°53' E 032°19'2315.6
2017-May-15 09:00N 30°30' E 032°18'0 0.0 340 / 81012.010.8 27.016.4
2017-May-15 08:00N 30°30' E 032°18'43 3.9 340 / 81012.010.8 27.016.4
2017-May-14 21:00N 29°48' E 032°30'   350 / 201007.010.8 24.018.0

Dump ship's entire track history